sensor_id;sensor_type;location;lat;lon;timestamp;temperature;humidity
67862;DHT22;54665;51.462;6.698;2023-09-30T00:01:18;11.23;98.92
67862;DHT22;54665;51.462;6.698;2023-09-30T00:03:18;11.19;98.87
67862;DHT22;54665;51.462;6.698;2023-09-30T00:05:19;11.18;98.83
67862;DHT22;54665;51.462;6.698;2023-09-30T00:07:19;11.19;98.96
67862;DHT22;54665;51.462;6.698;2023-09-30T00:09:19;11.22;98.95
67862;DHT22;54665;51.462;6.698;2023-09-30T00:11:20;11.20;99.03
67862;DHT22;54665;51.462;6.698;2023-09-30T00:13:20;11.23;98.97
67862;DHT22;54665;51.462;6.698;2023-09-30T00:15:20;11.30;99.09
67862;DHT22;54665;51.462;6.698;2023-09-30T00:17:21;11.42;99.25
67862;DHT22;54665;51.462;6.698;2023-09-30T00:19:21;11.49;99.17
67862;DHT22;54665;51.462;6.698;2023-09-30T00:21:21;11.53;99.12
67862;DHT22;54665;51.462;6.698;2023-09-30T00:23:22;11.55;99.09
67862;DHT22;54665;51.462;6.698;2023-09-30T00:25:22;11.55;99.04
67862;DHT22;54665;51.462;6.698;2023-09-30T00:27:22;11.55;99.09
67862;DHT22;54665;51.462;6.698;2023-09-30T00:29:23;11.50;98.91
67862;DHT22;54665;51.462;6.698;2023-09-30T00:31:23;11.50;99.02
67862;DHT22;54665;51.462;6.698;2023-09-30T00:33:23;11.49;99.05
67862;DHT22;54665;51.462;6.698;2023-09-30T00:35:24;11.49;99.01
67862;DHT22;54665;51.462;6.698;2023-09-30T00:37:25;11.52;98.98
67862;DHT22;54665;51.462;6.698;2023-09-30T00:39:25;11.50;98.95
67862;DHT22;54665;51.462;6.698;2023-09-30T00:41:25;11.56;99.21
67862;DHT22;54665;51.462;6.698;2023-09-30T00:43:25;11.59;99.18
67862;DHT22;54665;51.462;6.698;2023-09-30T00:45:26;11.60;99.15
67862;DHT22;54665;51.462;6.698;2023-09-30T00:47:26;11.62;99.14
67862;DHT22;54665;51.462;6.698;2023-09-30T00:49:28;11.59;99.04
67862;DHT22;54665;51.462;6.698;2023-09-30T00:51:29;11.57;98.99
67862;DHT22;54665;51.462;6.698;2023-09-30T00:53:30;11.56;99.09
67862;DHT22;54665;51.462;6.698;2023-09-30T00:55:31;11.59;99.16
67862;DHT22;54665;51.462;6.698;2023-09-30T00:57:31;11.57;99.16
67862;DHT22;54665;51.462;6.698;2023-09-30T00:59:32;11.52;99.08
67862;DHT22;54665;51.462;6.698;2023-09-30T01:01:32;11.50;99.08
67862;DHT22;54665;51.462;6.698;2023-09-30T01:03:33;11.53;99.08
67862;DHT22;54665;51.462;6.698;2023-09-30T01:05:33;11.55;99.16
67862;DHT22;54665;51.462;6.698;2023-09-30T01:07:34;11.57;99.21
67862;DHT22;54665;51.462;6.698;2023-09-30T01:09:34;11.60;99.20
67862;DHT22;54665;51.462;6.698;2023-09-30T01:11:35;11.57;99.19
67862;DHT22;54665;51.462;6.698;2023-09-30T01:13:36;11.55;99.16
67862;DHT22;54665;51.462;6.698;2023-09-30T01:15:37;11.53;99.16
67862;DHT22;54665;51.462;6.698;2023-09-30T01:17:37;11.50;99.09
67862;DHT22;54665;51.462;6.698;2023-09-30T01:19:37;11.50;99.16
67862;DHT22;54665;51.462;6.698;2023-09-30T01:21:38;11.44;99.04
67862;DHT22;54665;51.462;6.698;2023-09-30T01:23:38;11.40;99.02
67862;DHT22;54665;51.462;6.698;2023-09-30T01:25:39;11.33;98.98
67862;DHT22;54665;51.462;6.698;2023-09-30T01:27:40;11.30;99.02
67862;DHT22;54665;51.462;6.698;2023-09-30T01:29:40;11.28;99.01
67862;DHT22;54665;51.462;6.698;2023-09-30T01:31:41;11.33;99.18
67862;DHT22;54665;51.462;6.698;2023-09-30T01:33:41;11.39;99.40
67862;DHT22;54665;51.462;6.698;2023-09-30T01:35:41;11.38;99.38
67862;DHT22;54665;51.462;6.698;2023-09-30T01:37:42;11.39;99.22
67862;DHT22;54665;51.462;6.698;2023-09-30T01:39:43;11.36;99.20
67862;DHT22;54665;51.462;6.698;2023-09-30T01:41:43;11.30;99.16
67862;DHT22;54665;51.462;6.698;2023-09-30T01:43:44;11.30;99.27
67862;DHT22;54665;51.462;6.698;2023-09-30T01:45:44;11.36;99.79
67862;DHT22;54665;51.462;6.698;2023-09-30T01:47:44;11.32;99.43
67862;DHT22;54665;51.462;6.698;2023-09-30T01:49:45;11.23;99.24
67862;DHT22;54665;51.462;6.698;2023-09-30T01:51:45;11.22;99.56
67862;DHT22;54665;51.462;6.698;2023-09-30T01:53:45;11.22;99.88
67862;DHT22;54665;51.462;6.698;2023-09-30T01:55:46;11.12;99.59
67862;DHT22;54665;51.462;6.698;2023-09-30T01:57:46;11.04;99.39
67862;DHT22;54665;51.462;6.698;2023-09-30T01:59:46;10.97;99.32
67862;DHT22;54665;51.462;6.698;2023-09-30T02:01:48;10.97;99.36
67862;DHT22;54665;51.462;6.698;2023-09-30T02:03:51;10.99;99.60
67862;DHT22;54665;51.462;6.698;2023-09-30T02:05:51;10.98;99.62
67862;DHT22;54665;51.462;6.698;2023-09-30T02:07:51;10.99;99.67
67862;DHT22;54665;51.462;6.698;2023-09-30T02:09:52;10.98;99.60
67862;DHT22;54665;51.462;6.698;2023-09-30T02:11:52;10.95;99.68
67862;DHT22;54665;51.462;6.698;2023-09-30T02:13:53;10.92;99.60
67862;DHT22;54665;51.462;6.698;2023-09-30T02:15:53;10.82;99.60
67862;DHT22;54665;51.462;6.698;2023-09-30T02:17:54;10.74;99.54
67862;DHT22;54665;51.462;6.698;2023-09-30T02:19:54;10.69;99.49
67862;DHT22;54665;51.462;6.698;2023-09-30T02:21:55;10.67;99.43
67862;DHT22;54665;51.462;6.698;2023-09-30T02:23:55;10.75;99.72
67862;DHT22;54665;51.462;6.698;2023-09-30T02:25:56;10.79;99.80
67862;DHT22;54665;51.462;6.698;2023-09-30T02:27:56;10.75;99.81
67862;DHT22;54665;51.462;6.698;2023-09-30T02:29:56;10.72;99.74
67862;DHT22;54665;51.462;6.698;2023-09-30T02:31:57;10.68;99.78
67862;DHT22;54665;51.462;6.698;2023-09-30T02:33:57;10.65;99.64
67862;DHT22;54665;51.462;6.698;2023-09-30T02:35:57;10.54;99.51
67862;DHT22;54665;51.462;6.698;2023-09-30T02:37:58;10.47;99.48
67862;DHT22;54665;51.462;6.698;2023-09-30T02:39:58;10.41;99.52
67862;DHT22;54665;51.462;6.698;2023-09-30T02:41:58;10.34;99.54
67862;DHT22;54665;51.462;6.698;2023-09-30T02:43:58;10.33;99.56
67862;DHT22;54665;51.462;6.698;2023-09-30T02:45:59;10.30;99.59
67862;DHT22;54665;51.462;6.698;2023-09-30T02:47:59;10.32;99.54
67862;DHT22;54665;51.462;6.698;2023-09-30T02:50:01;10.30;99.56
67862;DHT22;54665;51.462;6.698;2023-09-30T02:52:01;10.29;99.63
67862;DHT22;54665;51.462;6.698;2023-09-30T02:54:02;10.33;99.60
67862;DHT22;54665;51.462;6.698;2023-09-30T02:56:03;10.40;99.76
67862;DHT22;54665;51.462;6.698;2023-09-30T02:58:06;10.41;99.86
67862;DHT22;54665;51.462;6.698;2023-09-30T03:00:09;10.43;99.88
67862;DHT22;54665;51.462;6.698;2023-09-30T03:02:10;10.34;99.70
67862;DHT22;54665;51.462;6.698;2023-09-30T03:04:10;10.30;99.77
67862;DHT22;54665;51.462;6.698;2023-09-30T03:06:11;10.32;99.77
67862;DHT22;54665;51.462;6.698;2023-09-30T03:08:11;10.32;99.88
67862;DHT22;54665;51.462;6.698;2023-09-30T03:10:11;10.30;99.75
67862;DHT22;54665;51.462;6.698;2023-09-30T03:12:12;10.32;99.76
67862;DHT22;54665;51.462;6.698;2023-09-30T03:14:12;10.32;99.78
67862;DHT22;54665;51.462;6.698;2023-09-30T03:16:12;10.29;99.86
67862;DHT22;54665;51.462;6.698;2023-09-30T03:18:13;10.29;99.81
67862;DHT22;54665;51.462;6.698;2023-09-30T03:20:13;10.27;99.99
67862;DHT22;54665;51.462;6.698;2023-09-30T03:22:13;10.23;99.73
67862;DHT22;54665;51.462;6.698;2023-09-30T03:24:14;10.23;99.71
67862;DHT22;54665;51.462;6.698;2023-09-30T03:26:14;10.32;99.85
67862;DHT22;54665;51.462;6.698;2023-09-30T03:28:14;10.37;99.83
67862;DHT22;54665;51.462;6.698;2023-09-30T03:30:16;10.38;99.81
67862;DHT22;54665;51.462;6.698;2023-09-30T03:32:16;10.44;99.91
67862;DHT22;54665;51.462;6.698;2023-09-30T03:34:16;10.53;99.93
67862;DHT22;54665;51.462;6.698;2023-09-30T03:36:17;10.57;99.90
67862;DHT22;54665;51.462;6.698;2023-09-30T03:38:17;10.61;99.84
67862;DHT22;54665;51.462;6.698;2023-09-30T03:40:17;10.61;99.94
67862;DHT22;54665;51.462;6.698;2023-09-30T03:42:18;10.58;99.75
67862;DHT22;54665;51.462;6.698;2023-09-30T03:44:18;10.67;99.82
67862;DHT22;54665;51.462;6.698;2023-09-30T03:46:18;10.67;99.84
67862;DHT22;54665;51.462;6.698;2023-09-30T03:48:19;10.67;99.76
67862;DHT22;54665;51.462;6.698;2023-09-30T03:50:19;10.65;99.79
67862;DHT22;54665;51.462;6.698;2023-09-30T03:52:19;10.64;99.79
67862;DHT22;54665;51.462;6.698;2023-09-30T03:54:20;10.64;99.89
67862;DHT22;54665;51.462;6.698;2023-09-30T03:56:20;10.61;99.97
67862;DHT22;54665;51.462;6.698;2023-09-30T03:58:21;10.53;99.94
67862;DHT22;54665;51.462;6.698;2023-09-30T04:00:21;10.50;99.83
67862;DHT22;54665;51.462;6.698;2023-09-30T04:02:21;10.53;99.94
67862;DHT22;54665;51.462;6.698;2023-09-30T04:04:22;10.50;99.98
67862;DHT22;54665;51.462;6.698;2023-09-30T04:06:22;10.43;99.84
67862;DHT22;54665;51.462;6.698;2023-09-30T04:08:22;10.43;99.87
67862;DHT22;54665;51.462;6.698;2023-09-30T04:10:23;10.41;99.90
67862;DHT22;54665;51.462;6.698;2023-09-30T04:12:23;10.37;99.87
67862;DHT22;54665;51.462;6.698;2023-09-30T04:14:24;10.37;99.88
67862;DHT22;54665;51.462;6.698;2023-09-30T04:16:24;10.37;99.92
67862;DHT22;54665;51.462;6.698;2023-09-30T04:18:25;10.40;99.99
67862;DHT22;54665;51.462;6.698;2023-09-30T04:20:25;10.41;99.89
67862;DHT22;54665;51.462;6.698;2023-09-30T04:22:25;10.40;99.90
67862;DHT22;54665;51.462;6.698;2023-09-30T04:24:26;10.41;99.93
67862;DHT22;54665;51.462;6.698;2023-09-30T04:26:27;10.43;99.96
67862;DHT22;54665;51.462;6.698;2023-09-30T04:28:27;10.41;99.99
67862;DHT22;54665;51.462;6.698;2023-09-30T04:30:27;10.44;99.99
67862;DHT22;54665;51.462;6.698;2023-09-30T04:32:28;10.41;99.99
67862;DHT22;54665;51.462;6.698;2023-09-30T04:34:29;10.36;99.99
67862;DHT22;54665;51.462;6.698;2023-09-30T04:36:29;10.36;99.99
67862;DHT22;54665;51.462;6.698;2023-09-30T04:38:29;10.38;99.99
67862;DHT22;54665;51.462;6.698;2023-09-30T04:40:30;10.46;99.99
67862;DHT22;54665;51.462;6.698;2023-09-30T04:42:30;10.53;99.99
67862;DHT22;54665;51.462;6.698;2023-09-30T04:44:30;10.53;99.99
67862;DHT22;54665;51.462;6.698;2023-09-30T04:46:31;10.47;99.99
67862;DHT22;54665;51.462;6.698;2023-09-30T04:48:31;10.47;99.96
67862;DHT22;54665;51.462;6.698;2023-09-30T04:50:31;10.41;99.90
67862;DHT22;54665;51.462;6.698;2023-09-30T04:52:31;10.44;99.99
67862;DHT22;54665;51.462;6.698;2023-09-30T04:54:32;10.41;99.99
67862;DHT22;54665;51.462;6.698;2023-09-30T04:56:32;10.37;99.99
67862;DHT22;54665;51.462;6.698;2023-09-30T04:58:32;10.34;99.99
67862;DHT22;54665;51.462;6.698;2023-09-30T05:00:33;10.37;99.99
67862;DHT22;54665;51.462;6.698;2023-09-30T05:02:33;10.37;99.99
67862;DHT22;54665;51.462;6.698;2023-09-30T05:04:33;10.47;99.99
67862;DHT22;54665;51.462;6.698;2023-09-30T05:06:34;10.47;99.99
67862;DHT22;54665;51.462;6.698;2023-09-30T05:08:35;10.47;99.99
67862;DHT22;54665;51.462;6.698;2023-09-30T05:10:35;10.51;99.99
67862;DHT22;54665;51.462;6.698;2023-09-30T05:12:36;10.44;99.99
67862;DHT22;54665;51.462;6.698;2023-09-30T05:14:36;10.37;99.99
67862;DHT22;54665;51.462;6.698;2023-09-30T05:16:37;10.34;99.99
67862;DHT22;54665;51.462;6.698;2023-09-30T05:18:37;10.38;99.99
67862;DHT22;54665;51.462;6.698;2023-09-30T05:20:37;10.38;99.99
67862;DHT22;54665;51.462;6.698;2023-09-30T05:22:40;10.43;99.99
67862;DHT22;54665;51.462;6.698;2023-09-30T05:24:41;10.44;99.99
67862;DHT22;54665;51.462;6.698;2023-09-30T05:26:41;10.36;99.99
67862;DHT22;54665;51.462;6.698;2023-09-30T05:28:42;10.30;99.99
67862;DHT22;54665;51.462;6.698;2023-09-30T05:30:42;10.24;99.99
67862;DHT22;54665;51.462;6.698;2023-09-30T05:32:42;10.21;99.99
67862;DHT22;54665;51.462;6.698;2023-09-30T05:34:43;10.20;99.99
67862;DHT22;54665;51.462;6.698;2023-09-30T05:36:43;10.30;99.99
67862;DHT22;54665;51.462;6.698;2023-09-30T05:38:43;10.32;99.99
67862;DHT22;54665;51.462;6.698;2023-09-30T05:40:43;10.33;99.99
67862;DHT22;54665;51.462;6.698;2023-09-30T05:42:44;10.32;99.99
67862;DHT22;54665;51.462;6.698;2023-09-30T05:44:44;10.33;99.99
67862;DHT22;54665;51.462;6.698;2023-09-30T05:46:45;10.41;99.99
67862;DHT22;54665;51.462;6.698;2023-09-30T05:48:45;10.47;99.99
67862;DHT22;54665;51.462;6.698;2023-09-30T05:50:45;10.54;99.99
67862;DHT22;54665;51.462;6.698;2023-09-30T05:52:46;10.56;99.99
67862;DHT22;54665;51.462;6.698;2023-09-30T05:54:46;10.63;99.99
67862;DHT22;54665;51.462;6.698;2023-09-30T05:56:46;10.64;99.99
67862;DHT22;54665;51.462;6.698;2023-09-30T05:58:47;10.69;99.99
67862;DHT22;54665;51.462;6.698;2023-09-30T06:00:47;10.69;99.99
67862;DHT22;54665;51.462;6.698;2023-09-30T06:02:51;10.77;99.99
67862;DHT22;54665;51.462;6.698;2023-09-30T06:04:51;10.82;99.99
67862;DHT22;54665;51.462;6.698;2023-09-30T06:06:51;10.85;99.93
67862;DHT22;54665;51.462;6.698;2023-09-30T06:08:52;10.94;99.99
67862;DHT22;54665;51.462;6.698;2023-09-30T06:10:52;10.99;99.98
67862;DHT22;54665;51.462;6.698;2023-09-30T06:12:53;11.04;99.95
67862;DHT22;54665;51.462;6.698;2023-09-30T06:14:53;11.05;99.92
67862;DHT22;54665;51.462;6.698;2023-09-30T06:16:54;11.09;99.83
67862;DHT22;54665;51.462;6.698;2023-09-30T06:18:54;11.15;99.90
67862;DHT22;54665;51.462;6.698;2023-09-30T06:20:54;11.22;99.94
67862;DHT22;54665;51.462;6.698;2023-09-30T06:22:55;11.26;99.99
67862;DHT22;54665;51.462;6.698;2023-09-30T06:24:55;11.35;99.92
67862;DHT22;54665;51.462;6.698;2023-09-30T06:26:55;11.43;99.99
67862;DHT22;54665;51.462;6.698;2023-09-30T06:28:56;11.49;99.90
67862;DHT22;54665;51.462;6.698;2023-09-30T06:30:57;11.49;99.87
67862;DHT22;54665;51.462;6.698;2023-09-30T06:32:58;11.53;99.77
67862;DHT22;54665;51.462;6.698;2023-09-30T06:34:59;11.59;99.76
67862;DHT22;54665;51.462;6.698;2023-09-30T06:36:59;11.66;99.92
67862;DHT22;54665;51.462;6.698;2023-09-30T06:38:59;11.74;99.83
67862;DHT22;54665;51.462;6.698;2023-09-30T06:41:00;11.74;99.68
67862;DHT22;54665;51.462;6.698;2023-09-30T06:43:00;11.81;99.70
67862;DHT22;54665;51.462;6.698;2023-09-30T06:45:01;11.84;99.67
67862;DHT22;54665;51.462;6.698;2023-09-30T06:47:01;11.86;99.63
67862;DHT22;54665;51.462;6.698;2023-09-30T06:49:01;11.94;99.64
67862;DHT22;54665;51.462;6.698;2023-09-30T06:51:02;12.00;99.59
67862;DHT22;54665;51.462;6.698;2023-09-30T06:53:02;12.11;99.72
67862;DHT22;54665;51.462;6.698;2023-09-30T06:55:03;12.17;99.55
67862;DHT22;54665;51.462;6.698;2023-09-30T06:57:03;12.22;99.40
67862;DHT22;54665;51.462;6.698;2023-09-30T06:59:04;12.27;99.39
67862;DHT22;54665;51.462;6.698;2023-09-30T07:01:04;12.32;99.37
67862;DHT22;54665;51.462;6.698;2023-09-30T07:03:04;12.37;99.31
67862;DHT22;54665;51.462;6.698;2023-09-30T07:05:09;12.42;99.25
67862;DHT22;54665;51.462;6.698;2023-09-30T07:07:10;12.51;99.22
67862;DHT22;54665;51.462;6.698;2023-09-30T07:09:10;12.55;99.07
67862;DHT22;54665;51.462;6.698;2023-09-30T07:11:10;12.58;99.06
67862;DHT22;54665;51.462;6.698;2023-09-30T07:13:11;12.61;98.99
67862;DHT22;54665;51.462;6.698;2023-09-30T07:15:11;12.61;98.93
67862;DHT22;54665;51.462;6.698;2023-09-30T07:17:11;12.71;98.75
67862;DHT22;54665;51.462;6.698;2023-09-30T07:19:12;12.80;98.65
67862;DHT22;54665;51.462;6.698;2023-09-30T07:21:13;12.82;98.63
67862;DHT22;54665;51.462;6.698;2023-09-30T07:23:13;12.90;98.41
67862;DHT22;54665;51.462;6.698;2023-09-30T07:25:13;12.97;98.67
67862;DHT22;54665;51.462;6.698;2023-09-30T07:27:14;13.07;98.57
67862;DHT22;54665;51.462;6.698;2023-09-30T07:29:14;13.19;98.60
67862;DHT22;54665;51.462;6.698;2023-09-30T07:31:14;13.44;98.32
67862;DHT22;54665;51.462;6.698;2023-09-30T07:33:15;13.81;97.79
67862;DHT22;54665;51.462;6.698;2023-09-30T07:35:15;14.15;96.81
67862;DHT22;54665;51.462;6.698;2023-09-30T07:37:16;14.37;94.54
67862;DHT22;54665;51.462;6.698;2023-09-30T07:39:16;14.64;96.19
67862;DHT22;54665;51.462;6.698;2023-09-30T07:41:16;14.73;95.35
67862;DHT22;54665;51.462;6.698;2023-09-30T07:43:17;14.84;95.75
67862;DHT22;54665;51.462;6.698;2023-09-30T07:45:17;14.94;95.55
67862;DHT22;54665;51.462;6.698;2023-09-30T07:47:17;14.94;94.03
67862;DHT22;54665;51.462;6.698;2023-09-30T07:49:18;15.05;95.00
67862;DHT22;54665;51.462;6.698;2023-09-30T07:51:18;14.90;93.54
67862;DHT22;54665;51.462;6.698;2023-09-30T07:53:18;15.03;94.79
67862;DHT22;54665;51.462;6.698;2023-09-30T07:55:19;15.21;94.47
67862;DHT22;54665;51.462;6.698;2023-09-30T07:57:19;15.28;93.33
67862;DHT22;54665;51.462;6.698;2023-09-30T07:59:19;15.38;93.80
67862;DHT22;54665;51.462;6.698;2023-09-30T08:01:20;15.45;93.65
67862;DHT22;54665;51.462;6.698;2023-09-30T08:03:20;15.58;93.74
67862;DHT22;54665;51.462;6.698;2023-09-30T08:05:20;15.63;93.50
67862;DHT22;54665;51.462;6.698;2023-09-30T08:07:20;15.82;93.48
67862;DHT22;54665;51.462;6.698;2023-09-30T08:09:21;15.92;92.28
67862;DHT22;54665;51.462;6.698;2023-09-30T08:11:21;16.02;92.40
67862;DHT22;54665;51.462;6.698;2023-09-30T08:13:24;16.07;91.25
67862;DHT22;54665;51.462;6.698;2023-09-30T08:15:24;16.18;90.90
67862;DHT22;54665;51.462;6.698;2023-09-30T08:17:25;16.34;91.09
67862;DHT22;54665;51.462;6.698;2023-09-30T08:19:25;16.36;90.29
67862;DHT22;54665;51.462;6.698;2023-09-30T08:21:25;16.44;90.45
67862;DHT22;54665;51.462;6.698;2023-09-30T08:23:26;16.38;90.69
67862;DHT22;54665;51.462;6.698;2023-09-30T08:25:26;16.40;90.25
67862;DHT22;54665;51.462;6.698;2023-09-30T08:27:26;16.34;90.44
67862;DHT22;54665;51.462;6.698;2023-09-30T08:29:27;16.43;90.60
67862;DHT22;54665;51.462;6.698;2023-09-30T08:31:27;16.28;89.74
67862;DHT22;54665;51.462;6.698;2023-09-30T08:33:27;16.34;90.46
67862;DHT22;54665;51.462;6.698;2023-09-30T08:35:27;16.43;89.82
67862;DHT22;54665;51.462;6.698;2023-09-30T08:37:28;16.36;89.19
67862;DHT22;54665;51.462;6.698;2023-09-30T08:39:28;16.47;89.70
67862;DHT22;54665;51.462;6.698;2023-09-30T08:41:31;16.55;90.15
67862;DHT22;54665;51.462;6.698;2023-09-30T08:43:37;16.58;89.29
67862;DHT22;54665;51.462;6.698;2023-09-30T08:45:39;16.63;89.06
67862;DHT22;54665;51.462;6.698;2023-09-30T08:47:42;16.64;89.44
67862;DHT22;54665;51.462;6.698;2023-09-30T08:49:43;16.54;87.82
67862;DHT22;54665;51.462;6.698;2023-09-30T08:51:43;16.64;88.97
67862;DHT22;54665;51.462;6.698;2023-09-30T08:53:44;16.68;88.28
67862;DHT22;54665;51.462;6.698;2023-09-30T08:55:46;16.71;87.24
67862;DHT22;54665;51.462;6.698;2023-09-30T08:57:48;16.72;86.48
67862;DHT22;54665;51.462;6.698;2023-09-30T08:59:48;16.84;88.82
67862;DHT22;54665;51.462;6.698;2023-09-30T09:01:49;16.79;88.24
67862;DHT22;54665;51.462;6.698;2023-09-30T09:03:49;16.65;87.58
67862;DHT22;54665;51.462;6.698;2023-09-30T09:05:56;16.79;88.34
67862;DHT22;54665;51.462;6.698;2023-09-30T09:07:56;16.82;87.59
67862;DHT22;54665;51.462;6.698;2023-09-30T09:10:07;16.65;87.02
67862;DHT22;54665;51.462;6.698;2023-09-30T09:12:19;16.51;86.49
67862;DHT22;54665;51.462;6.698;2023-09-30T09:14:36;16.54;87.96
67862;DHT22;54665;51.462;6.698;2023-09-30T09:16:36;16.58;87.51
67862;DHT22;54665;51.462;6.698;2023-09-30T09:18:37;16.64;87.45
67862;DHT22;54665;51.462;6.698;2023-09-30T09:20:37;16.51;86.18
67862;DHT22;54665;51.462;6.698;2023-09-30T09:22:42;16.53;87.07
67862;DHT22;54665;51.462;6.698;2023-09-30T09:24:42;16.68;87.64
67862;DHT22;54665;51.462;6.698;2023-09-30T09:26:43;16.67;85.30
67862;DHT22;54665;51.462;6.698;2023-09-30T09:28:43;16.78;86.86
67862;DHT22;54665;51.462;6.698;2023-09-30T09:30:43;16.88;86.23
67862;DHT22;54665;51.462;6.698;2023-09-30T09:33:00;16.92;85.04
67862;DHT22;54665;51.462;6.698;2023-09-30T09:35:01;16.78;83.05
67862;DHT22;54665;51.462;6.698;2023-09-30T09:37:16;16.94;84.46
67862;DHT22;54665;51.462;6.698;2023-09-30T09:39:29;17.11;84.17
67862;DHT22;54665;51.462;6.698;2023-09-30T09:41:29;17.14;84.91
67862;DHT22;54665;51.462;6.698;2023-09-30T09:43:31;17.22;82.66
67862;DHT22;54665;51.462;6.698;2023-09-30T09:45:34;17.16;82.06
67862;DHT22;54665;51.462;6.698;2023-09-30T09:47:35;17.20;82.12
67862;DHT22;54665;51.462;6.698;2023-09-30T09:49:35;17.33;83.65
67862;DHT22;54665;51.462;6.698;2023-09-30T09:51:36;17.50;84.06
67862;DHT22;54665;51.462;6.698;2023-09-30T09:53:37;17.56;81.84
67862;DHT22;54665;51.462;6.698;2023-09-30T09:55:38;17.53;82.64
67862;DHT22;54665;51.462;6.698;2023-09-30T09:57:41;17.66;82.27
67862;DHT22;54665;51.462;6.698;2023-09-30T09:59:43;17.57;80.92
67862;DHT22;54665;51.462;6.698;2023-09-30T10:01:44;17.45;81.37
67862;DHT22;54665;51.462;6.698;2023-09-30T10:03:47;17.43;81.85
67862;DHT22;54665;51.462;6.698;2023-09-30T10:05:47;17.70;81.68
67862;DHT22;54665;51.462;6.698;2023-09-30T10:07:52;17.98;79.55
67862;DHT22;54665;51.462;6.698;2023-09-30T10:09:55;18.28;79.51
67862;DHT22;54665;51.462;6.698;2023-09-30T10:12:00;18.55;81.49
67862;DHT22;54665;51.462;6.698;2023-09-30T10:14:01;18.66;79.75
67862;DHT22;54665;51.462;6.698;2023-09-30T10:16:01;18.56;77.53
67862;DHT22;54665;51.462;6.698;2023-09-30T10:18:05;18.22;78.17
67862;DHT22;54665;51.462;6.698;2023-09-30T10:20:06;18.02;79.13
67862;DHT22;54665;51.462;6.698;2023-09-30T10:26:25;17.97;79.32
67862;DHT22;54665;51.462;6.698;2023-09-30T10:30:37;17.96;78.64
67862;DHT22;54665;51.462;6.698;2023-09-30T10:34:50;18.04;78.87
67862;DHT22;54665;51.462;6.698;2023-09-30T10:36:51;17.98;79.84
67862;DHT22;54665;51.462;6.698;2023-09-30T10:38:51;17.74;80.80
67862;DHT22;54665;51.462;6.698;2023-09-30T10:40:52;17.53;80.86
67862;DHT22;54665;51.462;6.698;2023-09-30T10:42:52;17.42;82.03
67862;DHT22;54665;51.462;6.698;2023-09-30T10:44:53;17.40;81.44
67862;DHT22;54665;51.462;6.698;2023-09-30T10:46:54;17.67;82.15
67862;DHT22;54665;51.462;6.698;2023-09-30T10:48:55;18.01;81.92
67862;DHT22;54665;51.462;6.698;2023-09-30T10:50:56;18.25;79.60
67862;DHT22;54665;51.462;6.698;2023-09-30T10:53:03;18.49;78.50
67862;DHT22;54665;51.462;6.698;2023-09-30T10:55:04;18.83;78.06
67862;DHT22;54665;51.462;6.698;2023-09-30T10:57:05;19.06;78.54
67862;DHT22;54665;51.462;6.698;2023-09-30T10:59:05;19.04;74.38
67862;DHT22;54665;51.462;6.698;2023-09-30T11:01:05;19.61;75.73
67862;DHT22;54665;51.462;6.698;2023-09-30T11:03:06;19.72;73.03
67862;DHT22;54665;51.462;6.698;2023-09-30T11:05:10;19.68;73.01
67862;DHT22;54665;51.462;6.698;2023-09-30T11:07:10;19.61;72.05
67862;DHT22;54665;51.462;6.698;2023-09-30T11:09:19;19.62;72.14
67862;DHT22;54665;51.462;6.698;2023-09-30T11:11:21;19.67;73.36
67862;DHT22;54665;51.462;6.698;2023-09-30T11:13:34;19.53;69.81
67862;DHT22;54665;51.462;6.698;2023-09-30T11:15:34;19.68;70.82
67862;DHT22;54665;51.462;6.698;2023-09-30T11:17:35;19.85;71.49
67862;DHT22;54665;51.462;6.698;2023-09-30T11:19:46;19.98;71.35
67862;DHT22;54665;51.462;6.698;2023-09-30T11:21:48;20.33;69.81
67862;DHT22;54665;51.462;6.698;2023-09-30T11:23:49;20.53;72.55
67862;DHT22;54665;51.462;6.698;2023-09-30T11:25:50;20.46;68.84
67862;DHT22;54665;51.462;6.698;2023-09-30T11:27:50;20.26;70.03
67862;DHT22;54665;51.462;6.698;2023-09-30T11:29:51;20.28;71.58
67862;DHT22;54665;51.462;6.698;2023-09-30T11:31:51;20.28;72.29
67862;DHT22;54665;51.462;6.698;2023-09-30T11:33:52;20.22;71.30
67862;DHT22;54665;51.462;6.698;2023-09-30T11:36:04;19.93;70.33
67862;DHT22;54665;51.462;6.698;2023-09-30T11:38:05;19.02;72.97
67862;DHT22;54665;51.462;6.698;2023-09-30T11:40:12;19.26;72.93
67862;DHT22;54665;51.462;6.698;2023-09-30T11:42:15;19.30;73.29
67862;DHT22;54665;51.462;6.698;2023-09-30T11:44:16;19.40;73.67
67862;DHT22;54665;51.462;6.698;2023-09-30T11:46:16;19.46;72.76
67862;DHT22;54665;51.462;6.698;2023-09-30T11:48:18;18.93;73.40
67862;DHT22;54665;51.462;6.698;2023-09-30T11:50:18;19.04;71.98
67862;DHT22;54665;51.462;6.698;2023-09-30T11:52:26;19.30;74.49
67862;DHT22;54665;51.462;6.698;2023-09-30T11:56:30;19.31;72.97
67862;DHT22;54665;51.462;6.698;2023-09-30T11:58:30;18.88;72.86
67862;DHT22;54665;51.462;6.698;2023-09-30T12:00:30;18.90;73.00
67862;DHT22;54665;51.462;6.698;2023-09-30T12:02:31;18.51;72.62
67862;DHT22;54665;51.462;6.698;2023-09-30T12:04:31;18.55;72.52
67862;DHT22;54665;51.462;6.698;2023-09-30T12:06:32;18.12;75.47
67862;DHT22;54665;51.462;6.698;2023-09-30T12:08:32;18.21;75.07
67862;DHT22;54665;51.462;6.698;2023-09-30T12:10:33;18.28;77.21
67862;DHT22;54665;51.462;6.698;2023-09-30T12:12:33;18.49;76.24
67862;DHT22;54665;51.462;6.698;2023-09-30T12:14:33;18.86;73.27
67862;DHT22;54665;51.462;6.698;2023-09-30T12:16:33;18.89;74.14
67862;DHT22;54665;51.462;6.698;2023-09-30T12:18:34;19.26;72.62
67862;DHT22;54665;51.462;6.698;2023-09-30T12:20:34;19.16;71.31
67862;DHT22;54665;51.462;6.698;2023-09-30T12:22:34;18.89;71.45
67862;DHT22;54665;51.462;6.698;2023-09-30T12:24:35;19.54;72.56
67862;DHT22;54665;51.462;6.698;2023-09-30T12:26:35;19.83;70.27
67862;DHT22;54665;51.462;6.698;2023-09-30T12:28:36;20.49;70.81
67862;DHT22;54665;51.462;6.698;2023-09-30T12:30:36;21.11;68.77
67862;DHT22;54665;51.462;6.698;2023-09-30T12:32:36;21.28;64.73
67862;DHT22;54665;51.462;6.698;2023-09-30T12:34:37;20.98;63.37
67862;DHT22;54665;51.462;6.698;2023-09-30T12:36:38;21.11;65.57
67862;DHT22;54665;51.462;6.698;2023-09-30T12:38:38;21.10;64.76
67862;DHT22;54665;51.462;6.698;2023-09-30T12:40:39;20.15;66.15
67862;DHT22;54665;51.462;6.698;2023-09-30T12:42:39;20.04;69.18
67862;DHT22;54665;51.462;6.698;2023-09-30T12:44:39;20.22;69.26
67862;DHT22;54665;51.462;6.698;2023-09-30T12:46:40;20.53;66.17
67862;DHT22;54665;51.462;6.698;2023-09-30T12:48:40;21.08;66.64
67862;DHT22;54665;51.462;6.698;2023-09-30T12:50:44;21.46;67.13
67862;DHT22;54665;51.462;6.698;2023-09-30T12:52:44;21.82;65.48
67862;DHT22;54665;51.462;6.698;2023-09-30T12:54:45;22.06;66.53